Airport Name : Luton

Other Name : Luton

ICAO : EGGW

IATA : LTN

FAA :

Latitude : 51.874722

Longitude : -0.368333

Country : United Kingdom

Local Date and Time : 15 Jul 2024 18:25

 

TAF (Terminal Aerodrome Forecast)

TAF EGGW 151654Z 1518/1618 09010KT 9999 BKN040 BECMG 1518/1521 18005KT TEMPO 1518/1524 7000 RA SHRA BKN010 PROB30 TEMPO 1518/1522 3000 +RA +SHRA BKN004 BKN030CB BECMG 1600/1603 27010KT BKN010 TEMPO 1600/1610 6000 RA -RADZ BKN006 BECMG 1610/1613 SCT010 TEMPO 1610/1617 7000 SHRA PROB30 TEMPO 1613/1615 4000 +SHRA

 

METAR (METeorological Aerodrome Report)

EGGW 151720Z AUTO 10008KT 9999 BKN031/// BKN040/// //////TCU 18/15 Q1005

EGGW 151650Z AUTO 10009KT 9999 FEW033 BKN042 19/15 Q1006

EGGW 151620Z AUTO 09009KT 9999 -RA OVC045 19/16 Q1006

EGGW 151550Z AUTO 10008KT 9999 FEW049 18/16 Q1006

EGGW 151520Z AUTO 10009KT 9999 NCD 18/15 Q1007

EGGW 151450Z AUTO 09008KT 9999 NCD 18/15 Q1007

EGGW 151420Z AUTO 10008KT 9999 NCD 18/15 Q1007

EGGW 151350Z AUTO 10005KT 9999 FEW042 18/15 Q1008